createdAt,value
2023-04-22T00:00:08.344Z,8.3
2023-04-22T00:05:08.663Z,8.3
2023-04-22T00:10:09.068Z,8.1
2023-04-22T00:15:08.635Z,8.1
2023-04-22T00:20:08.726Z,7.9
2023-04-22T00:25:08.769Z,7.9
2023-04-22T00:30:08.801Z,7.6
2023-04-22T00:35:08.941Z,7.6
2023-04-22T00:40:07.971Z,7.4
2023-04-22T00:45:08.006Z,7.4
2023-04-22T00:50:08.066Z,7.4
2023-04-22T00:55:08.097Z,7.4
2023-04-22T01:00:08.180Z,7.4
2023-04-22T01:05:08.254Z,7.4
2023-04-22T01:10:08.370Z,7.5
2023-04-22T01:15:08.414Z,7.5
2023-04-22T01:20:08.627Z,7.5
2023-04-22T01:25:08.670Z,7.5
2023-04-22T01:30:08.719Z,7.5
2023-04-22T01:35:08.782Z,7.5
2023-04-22T01:40:08.883Z,7.6
2023-04-22T01:45:08.951Z,7.6
2023-04-22T01:50:07.985Z,7.6
2023-04-22T01:55:08.059Z,7.6
2023-04-22T02:00:08.119Z,7.6
2023-04-22T02:05:08.210Z,7.6
2023-04-22T02:10:08.364Z,7.9
2023-04-22T02:15:08.460Z,7.9
2023-04-22T02:20:08.586Z,7.5
2023-04-22T02:25:08.695Z,7.5
2023-04-22T02:30:08.701Z,7.9
2023-04-22T02:35:08.771Z,7.9
2023-04-22T02:40:08.866Z,7.6
2023-04-22T02:45:08.954Z,7.6
2023-04-22T02:50:08.034Z,7.9
2023-04-22T02:55:08.153Z,7.9
2023-04-22T03:00:08.228Z,7.5
2023-04-22T03:05:08.345Z,7.5
2023-04-22T03:10:08.442Z,7.5
2023-04-22T03:15:08.506Z,7.5
2023-04-22T03:20:08.711Z,7.9
2023-04-22T03:25:08.751Z,7.9
2023-04-22T03:30:08.805Z,7.5
2023-04-22T03:35:08.834Z,7.5
2023-04-22T03:40:08.933Z,7.6
2023-04-22T03:45:08.988Z,7.6
2023-04-22T03:50:08.144Z,7.9
2023-04-22T03:55:08.204Z,7.9
2023-04-22T04:00:08.228Z,7.6
2023-04-22T04:05:02.658Z,7.6
2023-04-22T04:10:03.374Z,7.6
2023-04-22T04:15:02.696Z,7.9
2023-04-22T04:20:03.159Z,7.6
2023-04-22T04:25:02.678Z,7.6
2023-04-22T04:30:02.311Z,7.9
2023-04-22T04:35:03.602Z,7.9
2023-04-22T04:40:03.303Z,8.0
2023-04-22T04:45:02.508Z,8.0
2023-04-22T04:50:02.947Z,8.1
2023-04-22T04:55:02.196Z,8.1
2023-04-22T05:00:02.783Z,8.1
2023-04-22T05:05:03.848Z,8.3
2023-04-22T05:10:03.655Z,8.3
2023-04-22T05:15:02.956Z,8.3
2023-04-22T05:20:03.537Z,8.3
2023-04-22T05:25:02.889Z,8.1
2023-04-22T05:30:03.149Z,8.1
2023-04-22T05:35:02.569Z,8.3
2023-04-22T05:40:03.027Z,8.3
2023-04-22T05:45:02.415Z,8.5
2023-04-22T05:50:02.906Z,8.5
2023-04-22T05:55:03.200Z,8.6
2023-04-22T06:00:03.257Z,9.0
2023-04-22T06:05:03.114Z,9.0
2023-04-22T06:10:05.190Z,9.1
2023-04-22T06:15:03.146Z,9.1
2023-04-22T06:20:03.818Z,9.3
2023-04-22T06:25:04.507Z,9.3
2023-04-22T06:30:03.959Z,9.5
2023-04-22T06:35:02.248Z,9.5
2023-04-22T06:40:02.493Z,9.3
2023-04-22T06:45:03.508Z,9.3
2023-04-22T06:50:02.738Z,9.6
2023-04-22T06:55:03.275Z,9.6
2023-04-22T07:00:02.589Z,10.0
2023-04-22T07:05:02.787Z,10.0
2023-04-22T07:10:04.160Z,10.6
2023-04-22T07:15:02.641Z,10.6
2023-04-22T07:20:03.006Z,10.6
2023-04-22T07:25:02.254Z,10.6
2023-04-22T07:30:03.312Z,11.3
2023-04-22T07:35:02.897Z,11.3
2023-04-22T07:40:03.214Z,12.6
2023-04-22T07:45:02.429Z,12.6
2023-04-22T07:50:03.023Z,13.5
2023-04-22T07:55:02.254Z,13.5
2023-04-22T08:00:03.028Z,14.5
2023-04-22T08:05:02.746Z,14.5
2023-04-22T08:10:02.955Z,15.3
2023-04-22T08:15:02.173Z,15.3
2023-04-22T08:20:03.855Z,15.5
2023-04-22T08:25:03.195Z,15.5
2023-04-22T08:30:02.503Z,15.3
2023-04-22T08:35:05.627Z,15.3
2023-04-22T08:40:03.040Z,16.2
2023-04-22T08:45:02.820Z,16.2
2023-04-22T08:50:03.130Z,17.2
2023-04-22T08:55:02.965Z,17.2
2023-04-22T09:00:02.158Z,16.2
2023-04-22T09:05:03.591Z,16.2
2023-04-22T09:10:02.817Z,16.6
2023-04-22T09:15:03.039Z,16.6
2023-04-22T09:20:02.402Z,17.7
2023-04-22T09:25:02.569Z,17.7
2023-04-22T09:30:03.152Z,18.8
2023-04-22T09:35:02.305Z,18.8
2023-04-22T09:40:02.444Z,19.7
2023-04-22T09:45:04.220Z,19.7
2023-04-22T09:50:02.837Z,19.7
2023-04-22T09:55:03.079Z,19.7
2023-04-22T10:00:02.862Z,19.7
2023-04-22T10:05:04.911Z,19.7
2023-04-22T10:10:03.605Z,20.0
2023-04-22T10:15:02.909Z,20.0
2023-04-22T10:20:03.083Z,20.2
2023-04-22T10:25:02.543Z,20.2
2023-04-22T10:30:03.025Z,20.1
2023-04-22T10:35:13.569Z,20.1
2023-04-22T10:40:02.715Z,19.5
2023-04-22T10:45:03.307Z,19.5
2023-04-22T10:50:02.644Z,21.5
2023-04-22T10:55:03.077Z,20.3
2023-04-22T11:00:02.263Z,20.3
2023-04-22T11:05:03.447Z,20.3
2023-04-22T11:10:02.741Z,20.3
2023-04-22T11:15:03.232Z,20.6
2023-04-22T11:20:02.497Z,20.6
2023-04-22T11:25:03.268Z,21.3
2023-04-22T11:30:02.734Z,21.3
2023-04-22T11:35:02.876Z,21.2
2023-04-22T11:40:17.291Z,21.2
2023-04-22T11:45:02.805Z,20.2
2023-04-22T11:50:03.307Z,20.2
2023-04-22T11:55:04.091Z,20.2
2023-04-22T12:00:02.591Z,20.1
2023-04-22T12:05:03.169Z,20.1
2023-04-22T12:10:02.387Z,20.6
2023-04-22T12:15:03.512Z,20.6
2023-04-22T12:20:02.879Z,21.6
2023-04-22T12:25:03.333Z,21.7
2023-04-22T12:30:03.703Z,22.7
2023-04-22T12:35:03.066Z,22.7
2023-04-22T12:40:02.614Z,21.2
2023-04-22T12:45:03.537Z,21.2
2023-04-22T12:50:03.423Z,20.3
2023-04-22T12:55:02.670Z,20.3
2023-04-22T13:00:03.316Z,20.2
2023-04-22T13:05:05.336Z,20.2
2023-04-22T13:10:03.281Z,20.1
2023-04-22T13:15:02.498Z,20.1
2023-04-22T13:20:02.965Z,21.0
2023-04-22T13:25:02.120Z,21.0
2023-04-22T13:30:02.463Z,20.7
2023-04-22T13:35:03.366Z,20.7
2023-04-22T13:40:04.320Z,20.0
2023-04-22T13:45:03.333Z,20.0
2023-04-22T13:50:03.120Z,20.2
2023-04-22T13:55:02.423Z,19.1
2023-04-22T14:00:02.820Z,18.5
2023-04-22T14:05:02.984Z,18.2
2023-04-22T14:10:02.773Z,17.7
2023-04-22T14:15:03.147Z,17.5
2023-04-22T14:20:02.446Z,17.2
2023-04-22T14:25:02.765Z,16.7
2023-04-22T14:30:03.826Z,16.2
2023-04-22T14:35:03.548Z,15.8
2023-04-22T14:40:03.109Z,15.6
2023-04-22T14:45:02.768Z,14.1
2023-04-22T14:50:03.693Z,13.6
2023-04-22T14:55:11.928Z,13.6
2023-04-22T15:00:03.444Z,13.6
2023-04-22T15:05:02.872Z,14.0
2023-04-22T15:10:03.191Z,13.8
2023-04-22T15:15:02.838Z,14.1
2023-04-22T15:20:05.715Z,14.1
2023-04-22T15:25:02.823Z,14.5
2023-04-22T15:30:03.055Z,15.1
2023-04-22T15:35:03.574Z,15.3
2023-04-22T15:40:03.244Z,15.3
2023-04-22T15:45:03.959Z,15.1
2023-04-22T15:50:02.688Z,15.0
2023-04-22T15:55:03.359Z,15.0
2023-04-22T16:00:10.978Z,15.0
2023-04-22T16:05:02.845Z,15.0
2023-04-22T16:10:04.678Z,14.6
2023-04-22T16:15:05.029Z,14.5
2023-04-22T16:20:02.332Z,14.5
2023-04-22T16:25:03.086Z,14.5
2023-04-22T16:30:02.604Z,14.5
2023-04-22T16:35:03.350Z,14.3
2023-04-22T16:40:02.625Z,13.6
2023-04-22T16:45:03.014Z,13.1
2023-04-22T16:50:04.100Z,13.1
2023-04-22T16:55:02.621Z,13.1
2023-04-22T17:00:03.245Z,12.8
2023-04-22T17:05:03.397Z,12.8
2023-04-22T17:10:05.638Z,13.1
2023-04-22T17:15:03.115Z,13.1
2023-04-22T17:20:03.067Z,13.1
2023-04-22T17:25:02.367Z,13.1
2023-04-22T17:30:02.873Z,13.1
2023-04-22T17:35:04.807Z,13.1
2023-04-22T17:40:03.236Z,12.8
2023-04-22T17:45:02.983Z,12.8
2023-04-22T17:50:02.192Z,13.1
2023-04-22T17:55:03.119Z,13.1
2023-04-22T18:00:02.458Z,12.8
2023-04-22T18:05:03.682Z,13.1
2023-04-22T18:10:03.964Z,13.1
2023-04-22T18:15:02.736Z,13.1
2023-04-22T18:20:16.844Z,13.1
2023-04-22T18:25:03.445Z,12.8
2023-04-22T18:30:03.078Z,13.1
2023-04-22T18:35:02.350Z,13.1
2023-04-22T18:40:03.563Z,12.8
2023-04-22T18:45:04.573Z,12.1
2023-04-22T18:50:04.236Z,12.1
2023-04-22T18:55:02.481Z,11.6
2023-04-22T19:00:05.008Z,11.6
2023-04-22T19:05:03.345Z,11.6
2023-04-22T19:10:02.604Z,11.3
2023-04-22T19:15:03.216Z,11.6
2023-04-22T19:20:02.853Z,11.3
2023-04-22T19:25:04.395Z,11.3
2023-04-22T19:30:02.822Z,11.3
2023-04-22T19:35:05.318Z,11.3
2023-04-22T19:40:02.467Z,10.8
2023-04-22T19:45:02.788Z,10.8
2023-04-22T19:50:03.863Z,10.8
2023-04-22T19:55:03.251Z,10.8
2023-04-22T20:00:02.551Z,10.8
2023-04-22T20:05:03.544Z,10.8
2023-04-22T20:10:03.640Z,10.5
2023-04-22T20:15:03.310Z,10.5
2023-04-22T20:20:02.898Z,10.1
2023-04-22T20:25:03.666Z,10.1
2023-04-22T20:30:02.944Z,10.1
2023-04-22T20:35:02.379Z,10.1
2023-04-22T20:40:02.735Z,9.8
2023-04-22T20:45:03.718Z,9.8
2023-04-22T20:50:02.945Z,9.8
2023-04-22T20:55:02.299Z,9.8
2023-04-22T21:00:04.198Z,9.6
2023-04-22T21:05:03.729Z,9.6
2023-04-22T21:10:04.896Z,9.5
2023-04-22T21:15:04.305Z,9.5
2023-04-22T21:20:02.976Z,9.3
2023-04-22T21:25:02.577Z,9.3
2023-04-22T21:30:03.446Z,9.5
2023-04-22T21:35:03.208Z,9.5
2023-04-22T21:40:02.881Z,9.3
2023-04-22T21:45:03.269Z,9.3
2023-04-22T21:50:02.519Z,9.5
2023-04-22T21:55:03.475Z,9.5
2023-04-22T22:00:02.752Z,9.5
2023-04-22T22:05:15.743Z,9.5
2023-04-22T22:10:08.868Z,9.3
2023-04-22T22:15:08.915Z,9.3
2023-04-22T22:20:12.922Z,8.6
2023-04-22T22:25:09.956Z,8.6
2023-04-22T22:30:08.011Z,8.5
2023-04-22T22:35:08.114Z,8.5
2023-04-22T22:40:08.197Z,8.3
2023-04-22T22:45:08.265Z,8.3
2023-04-22T22:50:08.376Z,8.3
2023-04-22T22:55:08.474Z,8.3
2023-04-22T23:01:14.898Z,8.3
2023-04-22T23:05:10.788Z,8.3
2023-04-22T23:10:08.215Z,8.5
2023-04-22T23:15:08.252Z,8.5
2023-04-22T23:20:08.283Z,8.5
2023-04-22T23:25:08.360Z,8.5
2023-04-22T23:30:08.440Z,8.5
2023-04-22T23:35:08.696Z,8.5
2023-04-22T23:40:08.717Z,8.5
2023-04-22T23:45:08.815Z,8.5
2023-04-22T23:50:08.880Z,8.5
2023-04-22T23:55:08.954Z,8.5
